Time;durP1;ratioP1;P1;durP2;ratioP2;P2;SDS_P1;SDS_P2;PMS_P1;PMS_P2;Temp;Humidity;BMP_temperature;BMP_pressure;BME280_temperature;BME280_humidity;BME280_pressure;Samples;Min_cycle;Max_cycle;Signal;HPM_P1;HPM_P2
2024/03/20 00:02:03;;;;;;;7.00;4.83;;;;;;;9.39;83.63;95814.47;5068716;28;20176;-79
2024/03/20 00:04:28;;;;;;;5.57;4.93;;;;;;;9.34;83.69;95812.25;5067707;28;20181;-79
2024/03/20 00:06:54;;;;;;;6.47;4.50;;;;;;;9.40;83.59;95810.09;5067841;28;20196;-77
2024/03/20 00:09:19;;;;;;;5.70;4.87;;;;;;;9.44;82.86;95811.47;5071039;28;20169;-78
2024/03/20 00:11:47;;;;;;;6.43;5.27;;;;;;;9.44;83.06;95816.66;5081985;28;20196;-78
2024/03/20 00:14:13;;;;;;;5.53;4.27;;;;;;;9.45;83.12;95824.28;5071117;28;20743;-79
2024/03/20 00:16:38;;;;;;;6.23;4.43;;;;;;;9.44;83.66;95812.28;5067570;28;20216;-78
2024/03/20 00:19:04;;;;;;;5.97;4.83;;;;;;;9.45;83.22;95811.31;5066522;28;20204;-77
2024/03/20 00:21:30;;;;;;;6.93;5.03;;;;;;;9.47;83.35;95813.81;5083313;28;20567;-78
2024/03/20 00:23:55;;;;;;;7.27;5.70;;;;;;;9.45;83.47;95808.72;5084795;28;20179;-78
2024/03/20 00:26:21;;;;;;;6.90;4.97;;;;;;;9.49;83.36;95810.13;5069023;28;20275;-79
2024/03/20 00:28:46;;;;;;;6.73;5.13;;;;;;;9.46;83.15;95804.41;5067706;28;20233;-79
2024/03/20 00:31:11;;;;;;;5.00;4.50;;;;;;;9.49;82.99;95804.94;5103187;28;20212;-78
2024/03/20 00:33:37;;;;;;;6.37;5.00;;;;;;;9.46;83.09;95805.22;5103962;28;20172;-78
2024/03/20 00:36:02;;;;;;;6.43;4.20;;;;;;;9.47;83.11;95800.84;5081966;28;20177;-79
2024/03/20 00:38:27;;;;;;;4.90;4.40;;;;;;;9.41;82.80;95797.00;5085881;28;20275;-78
2024/03/20 00:40:53;;;;;;;5.30;4.50;;;;;;;9.44;83.05;95793.31;5083556;28;20712;-78
2024/03/20 00:43:18;;;;;;;5.43;4.50;;;;;;;9.47;82.72;95796.47;5086558;28;20196;-78
2024/03/20 00:45:44;;;;;;;4.80;4.07;;;;;;;9.47;82.70;95786.09;5066771;28;20568;-77
2024/03/20 00:48:09;;;;;;;5.57;4.50;;;;;;;9.47;82.52;95790.47;5085974;28;20207;-78
2024/03/20 00:50:35;;;;;;;6.03;5.23;;;;;;;9.43;82.59;95789.09;5083755;28;20172;-78
2024/03/20 00:53:00;;;;;;;7.17;4.57;;;;;;;9.47;82.74;95787.88;5067478;28;20203;-78
2024/03/20 00:55:26;;;;;;;5.83;4.40;;;;;;;9.45;82.49;95790.59;5065242;28;20177;-78
2024/03/20 00:57:51;;;;;;;5.00;4.50;;;;;;;9.41;82.72;95788.41;5082794;28;20200;-78
2024/03/20 01:00:20;;;;;;;6.50;4.67;;;;;;;9.38;82.33;95781.72;5068217;28;20200;-78
2024/03/20 01:02:46;;;;;;;6.70;4.87;;;;;;;9.46;82.46;95781.06;5085441;28;20638;-78
2024/03/20 01:05:11;;;;;;;7.50;5.33;;;;;;;9.47;82.34;95783.50;5066840;28;20188;-79
2024/03/20 01:07:37;;;;;;;7.70;5.23;;;;;;;9.48;82.19;95779.16;5067068;28;20249;-79
2024/03/20 01:10:03;;;;;;;7.23;5.17;;;;;;;9.49;82.22;95773.00;5081940;28;20192;-78
2024/03/20 01:12:29;;;;;;;8.37;5.07;;;;;;;9.48;82.41;95772.19;5085575;28;20273;-78
2024/03/20 01:14:54;;;;;;;10.13;5.10;;;;;;;9.52;81.95;95777.91;5065781;28;20247;-79
2024/03/20 01:17:20;;;;;;;6.50;5.03;;;;;;;9.57;82.21;95770.56;5067831;28;20684;-78
2024/03/20 01:19:46;;;;;;;6.60;5.13;;;;;;;9.59;81.81;95768.63;5085764;28;20191;-78
2024/03/20 01:22:11;;;;;;;6.33;4.80;;;;;;;9.54;81.75;95766.47;5067817;28;20184;-79
2024/03/20 01:24:37;;;;;;;7.47;5.20;;;;;;;9.54;82.62;95771.66;5067777;28;20183;-78
2024/03/20 01:27:02;;;;;;;7.40;5.03;;;;;;;9.64;81.50;95774.25;5082558;28;20230;-78
2024/03/20 01:29:27;;;;;;;9.50;5.40;;;;;;;9.57;81.53;95768.78;5081429;28;20173;-78
2024/03/20 01:31:53;;;;;;;6.20;4.33;;;;;;;9.59;81.57;95773.81;5081559;28;20716;-78
2024/03/20 01:34:18;;;;;;;6.53;4.57;;;;;;;9.62;81.31;95773.53;5084501;28;20185;-78
2024/03/20 01:36:43;;;;;;;5.23;4.53;;;;;;;9.63;81.17;95765.66;5098237;28;20269;-79
2024/03/20 01:39:09;;;;;;;6.33;4.90;;;;;;;9.61;81.38;95771.91;5084000;28;20557;-79
2024/03/20 01:41:34;;;;;;;5.00;4.50;;;;;;;9.62;81.07;95766.59;5068588;28;20180;-78
2024/03/20 01:43:59;;;;;;;6.37;4.50;;;;;;;9.63;80.86;95765.66;5099467;28;20223;-78
2024/03/20 01:46:30;;;;;;;5.03;4.33;;;;;;;9.75;80.47;95762.91;5065728;28;20258;-78
2024/03/20 01:48:56;;;;;;;5.53;3.67;;;;;;;9.67;80.17;95757.59;5084034;28;20187;-78
2024/03/20 01:51:21;;;;;;;4.93;3.97;;;;;;;9.71;80.29;95751.97;5068253;28;20204;-77
2024/03/20 01:53:48;;;;;;;5.10;3.40;;;;;;;9.68;79.94;95754.03;5080695;28;20192;-78
2024/03/20 01:56:13;;;;;;;5.00;3.83;;;;;;;9.60;80.10;95755.53;5064248;28;20207;-79
2024/03/20 01:58:39;;;;;;;6.53;3.40;;;;;;;9.64;80.10;95751.72;5067022;28;20180;-78
2024/03/20 02:01:04;;;;;;;4.67;3.57;;;;;;;9.65;79.89;95752.53;5068063;28;20229;-79
2024/03/20 02:03:30;;;;;;;4.37;3.40;;;;;;;9.63;79.98;95747.50;5083411;28;20331;-78
2024/03/20 02:05:55;;;;;;;2.83;2.63;;;;;;;9.65;80.06;95753.38;5061446;28;20212;-78
2024/03/20 02:08:21;;;;;;;4.20;3.20;;;;;;;9.58;80.22;95756.63;5082196;28;20196;-78
2024/03/20 02:10:46;;;;;;;3.17;2.87;;;;;;;9.58;80.14;95748.84;5079152;28;20225;-79
2024/03/20 02:13:11;;;;;;;3.97;2.73;;;;;;;9.60;79.65;95750.34;5070510;28;20177;-78
2024/03/20 02:15:37;;;;;;;3.97;2.80;;;;;;;9.61;79.65;95749.38;5065190;28;20238;-78
2024/03/20 02:18:03;;;;;;;2.97;2.50;;;;;;;9.63;79.47;95755.28;5084513;28;20196;-79
2024/03/20 02:20:29;;;;;;;4.40;2.73;;;;;;;9.58;79.42;95751.44;5082241;28;20188;-79
2024/03/20 02:22:54;;;;;;;2.77;2.37;;;;;;;9.61;79.49;95751.97;5085422;28;20179;-78
2024/03/20 02:25:20;;;;;;;2.97;2.67;;;;;;;9.59;79.33;95750.50;5069302;28;20217;-78
2024/03/20 02:27:46;;;;;;;3.63;2.33;;;;;;;9.62;78.88;95753.63;5066988;28;20617;-79
2024/03/20 02:30:13;;;;;;;5.53;2.70;;;;;;;9.62;79.09;95747.63;5069238;28;20237;-79
2024/03/20 02:32:39;;;;;;;5.00;2.53;;;;;;;9.54;78.96;95745.72;5081396;28;20200;-79
2024/03/20 02:35:05;;;;;;;3.40;2.60;;;;;;;9.50;79.10;95741.75;5081810;28;20177;-79
2024/03/20 02:37:31;;;;;;;2.60;2.40;;;;;;;9.55;79.11;95751.72;5083308;28;20207;-78
2024/03/20 02:39:57;;;;;;;4.70;2.43;;;;;;;9.53;79.12;95748.44;5065145;28;20234;-79
2024/03/20 02:42:22;;;;;;;3.97;2.17;;;;;;;9.51;78.87;95748.56;5067509;28;20299;-79
2024/03/20 02:44:48;;;;;;;2.90;2.37;;;;;;;9.51;78.81;95750.34;5080589;28;20620;-78
2024/03/20 02:47:14;;;;;;;2.97;2.67;;;;;;;9.45;78.99;95754.28;5085193;28;20188;-79
2024/03/20 02:49:39;;;;;;;4.47;2.20;;;;;;;9.43;79.16;95757.97;5064137;28;20208;-78
2024/03/20 02:52:05;;;;;;;2.87;2.30;;;;;;;9.39;79.16;95741.91;5067538;28;20226;-79
2024/03/20 02:54:30;;;;;;;2.73;2.17;;;;;;;9.37;79.20;95749.00;5080953;28;20172;-78
2024/03/20 02:56:55;;;;;;;3.43;2.20;;;;;;;9.33;79.10;95748.44;5065151;28;20205;-78
2024/03/20 02:59:21;;;;;;;5.00;2.33;;;;;;;9.32;79.75;95748.56;5080799;28;20177;-78
2024/03/20 03:01:46;;;;;;;2.70;2.40;;;;;;;9.32;79.27;95748.56;5076996;28;20191;-79
2024/03/20 03:04:11;;;;;;;3.77;2.23;;;;;;;9.27;79.53;95753.31;5081088;28;20180;-78
2024/03/20 03:06:37;;;;;;;3.73;2.13;;;;;;;9.24;79.45;95751.00;5082016;28;20207;-77
2024/03/20 03:09:03;;;;;;;2.27;2.03;;;;;;;9.26;79.63;95760.28;5080649;28;20185;-78
2024/03/20 03:11:28;;;;;;;4.37;2.40;;;;;;;9.17;79.77;95753.31;5082331;28;20287;-79
2024/03/20 03:13:53;;;;;;;5.57;2.60;;;;;;;9.14;79.82;95752.78;5097858;28;20196;-78
2024/03/20 03:16:19;;;;;;;2.83;2.60;;;;;;;9.08;80.51;95764.47;5083844;28;20200;-78
2024/03/20 03:18:44;;;;;;;2.47;2.10;;;;;;;9.09;80.13;95756.56;5078337;28;20185;-78
2024/03/20 03:21:12;;;;;;;3.90;2.43;;;;;;;9.11;79.96;95758.22;5101243;28;20200;-78
2024/03/20 03:23:37;;;;;;;2.57;2.30;;;;;;;9.08;80.17;95759.28;5060413;28;20232;-79
2024/03/20 03:26:06;;;;;;;2.47;2.20;;;;;;;9.15;80.22;95759.59;5065656;28;20647;-78
2024/03/20 03:28:31;;;;;;;2.90;2.40;;;;;;;9.07;79.93;95758.47;5097249;28;20177;-78
2024/03/20 03:30:58;;;;;;;3.77;2.27;;;;;;;9.08;80.04;95757.53;5098344;28;20188;-78
2024/03/20 03:33:24;;;;;;;3.43;2.50;;;;;;;9.02;80.32;95755.47;5064019;28;20211;-78
2024/03/20 03:35:49;;;;;;;4.00;1.93;;;;;;;9.01;80.66;95753.00;5060026;28;20176;-79
2024/03/20 03:38:14;;;;;;;3.20;2.07;;;;;;;9.08;80.41;95761.88;5065637;28;20195;-78
2024/03/20 03:40:40;;;;;;;4.90;1.90;;;;;;;9.10;80.13;95754.81;5063350;28;20184;-79
2024/03/20 03:43:05;;;;;;;2.03;1.70;;;;;;;9.12;79.96;95758.09;5064972;28;20431;-79
2024/03/20 03:45:31;;;;;;;3.27;2.33;;;;;;;9.07;80.19;95762.84;5078699;28;20180;-79
2024/03/20 03:47:57;;;;;;;2.67;2.07;;;;;;;9.09;79.76;95751.38;5101266;28;20256;-79
2024/03/20 03:50:22;;;;;;;3.33;2.07;;;;;;;9.06;80.18;95753.44;5066617;28;20184;-78
2024/03/20 03:52:49;;;;;;;2.43;2.00;;;;;;;9.08;80.08;95756.69;5059340;28;20208;-78
2024/03/20 03:55:14;;;;;;;2.27;1.83;;;;;;;9.13;79.78;95757.13;5065840;28;20664;-78
2024/03/20 03:57:40;;;;;;;2.27;2.00;;;;;;;9.10;79.86;95749.63;5081452;28;20291;-78
2024/03/20 04:00:07;;;;;;;2.40;2.20;;;;;;;9.05;79.65;95756.97;5064597;28;20188;-78
2024/03/20 04:02:32;;;;;;;3.50;2.40;;;;;;;9.05;79.78;95754.38;5078246;28;20580;-78
2024/03/20 04:04:57;;;;;;;2.87;2.20;;;;;;;9.01;79.86;95755.59;5078711;28;20252;-79
2024/03/20 04:07:23;;;;;;;2.73;2.50;;;;;;;9.08;79.05;95752.34;5097256;28;20700;-78
2024/03/20 04:09:49;;;;;;;2.40;2.20;;;;;;;9.12;79.33;95746.91;5094358;28;20187;-78
2024/03/20 04:12:14;;;;;;;2.83;2.40;;;;;;;9.12;79.27;95752.91;5064778;28;20330;-78
2024/03/20 04:14:39;;;;;;;5.63;2.50;;;;;;;9.09;79.34;95755.75;5080628;28;20189;-78
2024/03/20 04:17:05;;;;;;;4.03;2.40;;;;;;;9.05;79.00;95750.03;5066582;28;20200;-78
2024/03/20 04:19:30;;;;;;;2.77;2.50;;;;;;;9.10;79.40;95752.22;5079325;28;20183;-79
2024/03/20 04:21:58;;;;;;;4.63;2.60;;;;;;;9.07;79.21;95762.84;5079848;28;20184;-78
2024/03/20 04:24:23;;;;;;;4.07;2.17;;;;;;;9.00;79.65;95761.72;5096597;28;20188;-78
2024/03/20 04:26:49;;;;;;;3.00;2.37;;;;;;;9.02;79.49;95762.44;5066355;28;20204;-78
2024/03/20 04:29:15;;;;;;;3.00;2.70;;;;;;;9.03;79.47;95762.28;5063963;28;20188;-78
2024/03/20 04:31:40;;;;;;;2.33;2.13;;;;;;;9.08;79.28;95754.09;5078530;28;20223;-78
2024/03/20 04:34:05;;;;;;;3.63;2.57;;;;;;;9.14;79.16;95757.94;5098917;28;20188;-79
2024/03/20 04:36:31;;;;;;;3.00;2.30;;;;;;;9.11;79.25;95756.47;5065613;28;20206;-78
2024/03/20 04:38:56;;;;;;;2.67;2.20;;;;;;;9.07;79.05;95763.66;5078517;28;20177;-79
2024/03/20 04:41:22;;;;;;;2.50;2.20;;;;;;;9.15;78.99;95760.41;5067912;28;20173;-77
2024/03/20 04:43:49;;;;;;;2.63;2.40;;;;;;;9.16;79.01;95754.25;5060995;28;20196;-78
2024/03/20 04:46:14;;;;;;;3.03;2.23;;;;;;;9.16;78.79;95763.81;5073089;28;20185;-79
2024/03/20 04:48:40;;;;;;;2.63;2.20;;;;;;;9.01;79.55;95758.19;5063804;28;20189;-77
2024/03/20 04:51:05;;;;;;;3.20;2.27;;;;;;;9.01;79.53;95755.59;5100180;28;20192;-79
2024/03/20 04:53:31;;;;;;;3.50;2.17;;;;;;;9.02;79.13;95759.84;5086737;28;20672;-78
2024/03/20 04:55:56;;;;;;;2.70;2.43;;;;;;;8.96;79.68;95757.78;5071587;28;20227;-79
2024/03/20 04:58:21;;;;;;;2.20;2.00;;;;;;;9.01;79.24;95753.84;5072374;28;20197;-78
2024/03/20 05:00:47;;;;;;;2.77;2.27;;;;;;;9.00;78.99;95759.94;5081522;28;20281;-78
2024/03/20 05:03:12;;;;;;;2.67;1.93;;;;;;;9.01;78.79;95758.19;5084873;28;20188;-79
2024/03/20 05:05:38;;;;;;;2.40;2.20;;;;;;;8.99;79.20;95762.69;5068136;28;20252;-79
2024/03/20 05:08:03;;;;;;;1.97;1.87;;;;;;;9.01;79.40;95763.34;5065785;28;20822;-78
2024/03/20 05:10:29;;;;;;;4.00;1.97;;;;;;;9.05;79.27;95760.38;5053928;28;20210;-79
2024/03/20 05:12:54;;;;;;;4.80;2.57;;;;;;;9.00;79.28;95751.38;5084108;28;20268;-79
2024/03/20 05:15:19;;;;;;;3.40;2.50;;;;;;;9.09;78.73;95755.75;5101896;28;20255;-78
2024/03/20 05:17:45;;;;;;;3.40;2.20;;;;;;;9.01;78.83;95758.19;5078705;28;20255;-79
2024/03/20 05:20:10;;;;;;;4.30;2.53;;;;;;;9.04;78.86;95768.28;5067475;28;20609;-78
2024/03/20 05:22:36;;;;;;;4.77;3.03;;;;;;;9.00;79.06;95762.53;5080768;28;20192;-79
2024/03/20 05:25:01;;;;;;;6.17;4.20;;;;;;;8.98;79.02;95764.44;5080168;28;20268;-79
2024/03/20 05:27:26;;;;;;;6.10;4.47;;;;;;;9.03;78.85;95766.66;5080144;28;20197;-79
2024/03/20 05:29:52;;;;;;;3.37;3.07;;;;;;;8.93;79.30;95765.81;5077018;28;20840;-78
2024/03/20 05:32:17;;;;;;;2.90;2.27;;;;;;;8.94;79.33;95767.44;5064608;28;20616;-79
2024/03/20 05:34:42;;;;;;;3.50;2.70;;;;;;;8.99;78.95;95760.09;5059325;28;20252;-79
2024/03/20 05:37:08;;;;;;;4.07;2.87;;;;;;;9.04;78.77;95763.13;5057637;28;20764;-79
2024/03/20 05:39:34;;;;;;;2.67;2.37;;;;;;;9.02;78.92;95771.03;5082466;28;20268;-78
2024/03/20 05:41:59;;;;;;;4.23;2.97;;;;;;;9.11;78.65;95773.78;5081446;28;20637;-78
2024/03/20 05:44:24;;;;;;;2.50;2.30;;;;;;;9.18;78.05;95775.66;5076944;28;20244;-79
2024/03/20 05:46:51;;;;;;;2.37;2.10;;;;;;;9.21;78.20;95775.44;5081360;28;20207;-78
2024/03/20 05:49:19;;;;;;;2.23;2.03;;;;;;;9.28;77.56;95779.13;5079291;28;20176;-78
2024/03/20 05:51:49;;;;;;;2.53;2.33;;;;;;;9.35;77.38;95777.63;5063406;28;20204;-78
2024/03/20 05:54:17;;;;;;;2.10;1.90;;;;;;;9.40;77.27;95773.81;5066482;28;20665;-78
2024/03/20 05:56:43;;;;;;;2.53;2.07;;;;;;;9.41;76.91;95778.84;5077895;28;20712;-77
2024/03/20 05:59:08;;;;;;;4.33;2.10;;;;;;;9.53;76.63;95777.78;5099023;28;20177;-78
2024/03/20 06:01:34;;;;;;;2.83;2.00;;;;;;;9.51;76.75;95784.88;5059288;28;20638;-78
2024/03/20 06:03:59;;;;;;;2.33;2.13;;;;;;;9.55;76.25;95773.28;5061850;28;20173;-77
2024/03/20 06:06:27;;;;;;;2.57;2.10;;;;;;;9.60;76.04;95778.06;5078533;28;20192;-78
2024/03/20 06:08:52;;;;;;;2.40;2.20;;;;;;;9.78;75.55;95779.00;5070148;28;20211;-77
2024/03/20 06:11:18;;;;;;;5.63;2.70;;;;;;;9.82;74.94;95785.56;5059257;28;20296;-78
2024/03/20 06:13:45;;;;;;;2.37;2.17;;;;;;;9.80;74.79;95776.28;5091324;28;20181;-78
2024/03/20 06:16:11;;;;;;;2.50;2.23;;;;;;;9.93;74.60;95782.00;5060510;28;20180;-78
2024/03/20 06:18:37;;;;;;;2.60;2.30;;;;;;;10.00;73.95;95780.50;5060436;28;20184;-77
2024/03/20 06:21:03;;;;;;;2.73;2.20;;;;;;;10.14;73.63;95789.63;5073910;28;20514;-78
2024/03/20 06:23:28;;;;;;;2.20;2.00;;;;;;;10.19;73.43;95785.66;5089898;28;20242;-77
2024/03/20 06:25:54;;;;;;;3.77;2.30;;;;;;;10.25;72.74;95789.53;5088217;28;20730;-78
2024/03/20 06:28:19;;;;;;;2.60;2.40;;;;;;;10.26;72.33;95788.56;5071849;28;20193;-78
2024/03/20 06:30:45;;;;;;;5.13;3.63;;;;;;;10.36;71.47;95786.75;5057276;28;20204;-77
2024/03/20 06:33:10;;;;;;;3.27;2.90;;;;;;;10.40;71.08;95793.28;5067641;28;20197;-78
2024/03/20 06:35:36;;;;;;;2.80;2.10;;;;;;;10.37;70.45;95796.19;5088485;28;20172;-78
2024/03/20 06:38:03;;;;;;;4.37;2.17;;;;;;;10.53;70.13;95795.59;5074928;28;20269;-78
2024/03/20 06:40:32;;;;;;;3.53;2.13;;;;;;;10.59;70.16;95795.03;5074129;28;20173;-77
2024/03/20 06:42:59;;;;;;;2.77;2.50;;;;;;;10.63;69.92;95800.78;5070943;28;20207;-77
2024/03/20 06:45:31;;;;;;;3.77;2.33;;;;;;;10.73;69.82;95801.56;5070014;28;20186;-77
2024/03/20 06:47:56;;;;;;;2.83;2.30;;;;;;;10.68;69.65;95804.56;5076312;28;20689;-80
2024/03/20 06:50:23;;;;;;;3.50;2.60;;;;;;;10.77;69.49;95808.91;5080366;28;20168;-78
2024/03/20 06:52:48;;;;;;;2.90;2.40;;;;;;;10.76;69.30;95809.03;5091584;28;20208;-78
2024/03/20 06:55:14;;;;;;;2.37;2.17;;;;;;;10.90;69.04;95813.78;5055394;28;20258;-77
2024/03/20 06:57:41;;;;;;;4.13;2.33;;;;;;;10.94;68.93;95815.13;5075519;28;20196;-78
2024/03/20 07:00:17;;;;;;;2.20;1.77;;;;;;;11.10;69.00;95813.69;5072752;28;20599;-78
2024/03/20 07:02:42;;;;;;;3.07;2.10;;;;;;;11.06;68.84;95823.59;5091160;28;20191;-79
2024/03/20 07:05:09;;;;;;;3.33;2.00;;;;;;;11.22;68.67;95821.19;5063307;28;20180;-80
2024/03/20 07:07:34;;;;;;;4.23;2.37;;;;;;;11.35;68.51;95818.22;5061372;28;20211;-77
2024/03/20 07:09:59;;;;;;;2.80;2.40;;;;;;;11.43;67.86;95815.72;5088118;28;20177;-76
2024/03/20 07:12:25;;;;;;;2.23;1.90;;;;;;;11.45;67.13;95818.97;5079886;28;20196;-78
2024/03/20 07:14:50;;;;;;;3.30;2.30;;;;;;;11.68;66.68;95824.59;5089820;28;20249;-78
2024/03/20 07:17:15;;;;;;;2.87;2.20;;;;;;;11.85;66.11;95828.22;5074950;28;20208;-77
2024/03/20 07:19:40;;;;;;;5.57;2.23;;;;;;;11.97;66.08;95826.19;5062388;28;20258;-79
2024/03/20 07:22:07;;;;;;;3.93;2.37;;;;;;;12.05;66.16;95824.47;5073940;28;20291;-78
2024/03/20 07:24:32;;;;;;;2.63;2.20;;;;;;;12.32;65.02;95827.94;5090855;28;20188;-78
2024/03/20 07:26:58;;;;;;;3.13;2.83;;;;;;;12.09;64.71;95830.19;5043737;28;20205;-78
2024/03/20 07:29:24;;;;;;;3.13;2.03;;;;;;;12.45;63.50;95828.34;5061276;28;20197;-78
2024/03/20 07:31:50;;;;;;;3.73;1.90;;;;;;;12.62;63.29;95826.69;5076456;28;20257;-78
2024/03/20 07:34:15;;;;;;;2.10;1.63;;;;;;;12.75;60.80;95827.91;5072518;28;20181;-78
2024/03/20 07:36:41;;;;;;;2.13;1.80;;;;;;;12.94;60.87;95826.06;5074213;28;20203;-78
2024/03/20 07:39:08;;;;;;;1.47;1.37;;;;;;;12.87;60.51;95825.03;5060698;28;20200;-78
2024/03/20 07:41:33;;;;;;;2.30;1.67;;;;;;;13.08;60.55;95833.31;5061082;28;20183;-78
2024/03/20 07:43:59;;;;;;;2.93;1.73;;;;;;;13.12;60.64;95833.81;5072003;28;20188;-78
2024/03/20 07:46:24;;;;;;;2.80;1.50;;;;;;;13.17;58.65;95842.00;5076289;28;20245;-78
2024/03/20 07:48:50;;;;;;;1.50;1.23;;;;;;;13.16;59.18;95843.75;5070102;28;20230;-77
2024/03/20 07:51:17;;;;;;;2.07;1.43;;;;;;;13.26;59.18;95846.28;5061631;28;20184;-78
2024/03/20 07:53:42;;;;;;;1.33;1.23;;;;;;;13.24;58.14;95851.66;5060579;28;20616;-78
2024/03/20 07:56:08;;;;;;;2.10;1.67;;;;;;;13.43;58.12;95845.38;5061532;28;20196;-78
2024/03/20 07:58:34;;;;;;;1.73;1.40;;;;;;;13.56;58.07;95844.94;5056781;28;20346;-78
2024/03/20 08:01:00;;;;;;;2.13;1.20;;;;;;;13.53;56.90;95853.91;5059549;28;20223;-78
2024/03/20 08:03:26;;;;;;;3.13;1.30;;;;;;;13.74;56.93;95845.63;5075393;28;20169;-78
2024/03/20 08:05:52;;;;;;;2.20;1.17;;;;;;;13.69;56.81;95847.06;5070861;28;20176;-78
2024/03/20 08:08:17;;;;;;;1.77;1.40;;;;;;;13.94;56.66;95842.72;5093256;28;20207;-78
2024/03/20 08:10:42;;;;;;;2.93;1.30;;;;;;;13.99;56.18;95843.06;5059477;28;20189;-78
2024/03/20 08:13:10;;;;;;;3.00;1.60;;;;;;;14.10;54.85;95837.53;5075347;28;20207;-78
2024/03/20 08:15:39;;;;;;;1.30;1.20;;;;;;;14.35;54.47;95839.16;5075535;28;20195;-78
2024/03/20 08:18:07;;;;;;;2.27;1.20;;;;;;;14.38;54.62;95833.59;5095638;28;20689;-77
2024/03/20 08:20:35;;;;;;;1.47;1.30;;;;;;;14.50;54.51;95838.56;5075476;28;20230;-77
2024/03/20 08:23:04;;;;;;;1.77;1.50;;;;;;;14.77;53.49;95835.56;5079898;28;20173;-78
2024/03/20 08:25:30;;;;;;;1.27;1.17;;;;;;;14.62;52.98;95845.06;5065115;28;20180;-78
2024/03/20 08:27:55;;;;;;;1.27;1.10;;;;;;;14.61;52.76;95846.03;5062364;28;20215;-78
2024/03/20 08:30:21;;;;;;;0.97;0.93;;;;;;;14.66;52.37;95844.56;5097351;28;20180;-77
2024/03/20 08:32:46;;;;;;;2.00;1.30;;;;;;;14.68;50.63;95842.59;5062617;28;20263;-78
2024/03/20 08:35:14;;;;;;;2.47;1.53;;;;;;;14.80;50.64;95840.47;5065266;28;20188;-78
2024/03/20 08:37:39;;;;;;;2.30;1.30;;;;;;;14.57;50.19;95844.72;5080892;28;20207;-78
2024/03/20 08:40:06;;;;;;;2.03;1.50;;;;;;;14.88;50.26;95845.66;5067326;28;20173;-77
2024/03/20 08:42:31;;;;;;;1.10;1.00;;;;;;;14.71;50.24;95844.88;5080495;28;20243;-79
2024/03/20 08:44:58;;;;;;;1.37;1.20;;;;;;;14.98;49.89;95850.72;5084306;28;20185;-76
2024/03/20 08:47:23;;;;;;;1.63;1.40;;;;;;;15.12;50.11;95849.22;5090372;28;20201;-77
2024/03/20 08:49:49;;;;;;;1.30;1.10;;;;;;;15.10;50.14;95843.31;5074079;28;20188;-77
2024/03/20 08:52:14;;;;;;;2.67;1.30;;;;;;;15.10;49.62;95851.97;5073558;28;20197;-77
2024/03/20 08:54:43;;;;;;;3.43;1.40;;;;;;;15.28;49.11;95854.38;5059494;28;20253;-78
2024/03/20 08:57:13;;;;;;;3.57;1.50;;;;;;;15.21;48.17;95850.81;5079461;28;20215;-77
2024/03/20 08:59:38;;;;;;;2.70;1.77;;;;;;;15.06;48.56;95858.53;5073769;28;20192;-78
2024/03/20 09:02:03;;;;;;;2.00;1.30;;;;;;;15.35;48.47;95849.28;5077551;28;20180;-78
2024/03/20 09:04:29;;;;;;;1.50;1.13;;;;;;;15.38;48.40;95855.00;5061813;28;20682;-77
2024/03/20 09:06:57;;;;;;;2.13;1.20;;;;;;;15.64;48.16;95862.63;5058472;28;20193;-77
2024/03/20 09:09:23;;;;;;;1.70;1.23;;;;;;;15.55;49.23;95855.75;5066890;28;20265;-78
2024/03/20 09:11:48;;;;;;;2.50;1.30;;;;;;;15.40;46.59;95855.66;5066551;28;20268;-78
2024/03/20 09:14:14;;;;;;;1.60;0.93;;;;;;;15.48;45.65;95849.56;5066125;28;20212;-78
2024/03/20 09:16:39;;;;;;;1.73;1.00;;;;;;;15.66;46.35;95854.59;5078351;28;20625;-78
2024/03/20 09:19:05;;;;;;;1.20;1.00;;;;;;;15.62;45.55;95855.91;5066945;28;20204;-78
2024/03/20 09:21:34;;;;;;;1.70;1.00;;;;;;;15.82;46.67;95847.47;5062472;28;20183;-78
2024/03/20 09:24:02;;;;;;;1.87;1.03;;;;;;;15.74;46.12;95846.69;5080448;28;20237;-77
2024/03/20 09:26:28;;;;;;;1.47;1.10;;;;;;;15.98;45.13;95848.34;5064771;28;20624;-78
2024/03/20 09:28:53;;;;;;;2.72;1.40;;;;;;;16.12;45.22;95848.41;5066004;28;20188;-79
2024/03/20 09:31:22;;;;;;;1.80;1.50;;;;;;;16.07;45.56;95845.50;5082225;28;20191;-78
2024/03/20 09:33:47;;;;;;;2.67;2.10;;;;;;;16.24;44.66;95840.94;5081268;28;20181;-77
2024/03/20 09:36:13;;;;;;;2.93;2.07;;;;;;;16.05;43.59;95844.03;5095515;28;20197;-79
2024/03/20 09:38:38;;;;;;;1.60;1.15;;;;;;;16.09;42.99;95848.78;5054466;28;20188;-77
2024/03/20 09:41:03;;;;;;;2.13;1.80;;;;;;;16.42;42.66;95851.13;5070967;28;20234;-77
2024/03/20 09:43:29;;;;;;;3.67;2.00;;;;;;;16.48;43.20;95844.38;5065928;28;20204;-77
2024/03/20 09:45:54;;;;;;;2.53;1.77;;;;;;;16.54;43.44;95841.88;5071471;28;20188;-77
2024/03/20 09:48:21;;;;;;;2.03;1.73;;;;;;;16.85;43.78;95843.56;5072430;28;20313;-78
2024/03/20 09:50:48;;;;;;;2.50;1.58;;;;;;;16.72;44.32;95846.00;5093468;28;20651;-77
2024/03/20 09:53:14;;;;;;;2.47;1.13;;;;;;;16.93;42.82;95844.31;5063208;28;20208;-78
2024/03/20 09:55:43;;;;;;;1.58;1.00;;;;;;;16.66;43.15;95847.50;5080690;28;20562;-78
2024/03/20 09:58:12;;;;;;;2.45;1.05;;;;;;;17.16;42.33;95846.88;5070076;28;20205;-78
2024/03/20 10:00:37;;;;;;;0.93;0.80;;;;;;;17.24;43.49;95838.91;5075556;28;20199;-78
2024/03/20 10:03:05;;;;;;;1.08;0.80;;;;;;;17.34;43.16;95840.44;5060748;28;20177;-77
2024/03/20 10:05:30;;;;;;;1.63;0.88;;;;;;;17.42;43.16;95846.41;5075924;28;20203;-77
2024/03/20 10:07:57;;;;;;;2.50;1.10;;;;;;;17.42;41.44;95846.41;5076203;28;20231;-78
2024/03/20 10:10:22;;;;;;;1.23;0.93;;;;;;;17.24;41.60;95844.16;5098735;28;20177;-77
2024/03/20 10:12:49;;;;;;;1.17;0.90;;;;;;;17.45;40.26;95840.78;5096051;28;20215;-77
2024/03/20 10:15:22;;;;;;;1.00;0.90;;;;;;;17.15;41.25;95836.56;5063293;28;20184;-78
2024/03/20 10:17:47;;;;;;;2.78;1.08;;;;;;;17.34;41.66;95838.63;5074101;28;20212;-78
2024/03/20 10:20:14;;;;;;;0.98;0.90;;;;;;;17.53;41.28;95843.31;5076001;28;20173;-77
2024/03/20 10:22:40;;;;;;;3.03;0.90;;;;;;;17.64;41.97;95841.19;5070175;28;20179;-78
2024/03/20 10:25:07;;;;;;;2.20;1.00;;;;;;;17.64;41.26;95849.91;5078131;28;20172;-78
2024/03/20 10:27:35;;;;;;;1.08;0.90;;;;;;;17.96;39.14;95845.25;5056635;28;20192;-78
2024/03/20 10:30:01;;;;;;;1.73;1.20;;;;;;;17.57;40.32;95843.75;5062395;28;20215;-78
2024/03/20 10:32:26;;;;;;;1.10;1.00;;;;;;;18.03;40.03;95849.56;5062870;28;20591;-78
2024/03/20 10:34:53;;;;;;;1.23;0.90;;;;;;;18.24;39.83;95843.50;5078861;28;20180;-78
2024/03/20 10:37:19;;;;;;;1.48;0.95;;;;;;;17.99;39.70;95840.41;5072665;28;20223;-77
2024/03/20 10:39:46;;;;;;;2.72;0.80;;;;;;;17.99;38.05;95836.97;5072260;28;20558;-76
2024/03/20 10:42:12;;;;;;;1.88;0.90;;;;;;;18.19;37.69;95842.44;5064100;28;20202;-76
2024/03/20 10:44:37;;;;;;;1.90;0.82;;;;;;;18.05;37.91;95841.50;5070807;28;20177;-77
2024/03/20 10:47:04;;;;;;;1.77;0.73;;;;;;;18.36;38.16;95836.72;5072223;28;20199;-77
2024/03/20 10:49:30;;;;;;;0.70;0.70;;;;;;;18.17;36.28;95836.56;5087248;28;20254;-77
2024/03/20 10:51:55;;;;;;;1.88;0.70;;;;;;;18.37;37.13;95830.47;5057856;28;20216;-77
2024/03/20 10:54:21;;;;;;;3.13;1.23;;;;;;;18.32;38.19;95832.88;5069199;28;20195;-76
2024/03/20 10:56:46;;;;;;;2.28;0.80;;;;;;;18.57;36.92;95833.28;5055693;28;20200;-77
2024/03/20 10:59:17;;;;;;;1.70;0.80;;;;;;;18.60;35.86;95830.25;5073598;28;20607;-77
2024/03/20 11:01:58;;;;;;;2.25;0.80;;;;;;;18.91;35.42;95831.75;5056507;28;20207;-77
2024/03/20 11:04:38;;;;;;;2.63;0.80;;;;;;;18.72;36.42;95837.66;5072135;28;20535;-77
2024/03/20 11:07:21;;;;;;;0.82;0.75;;;;;;;18.61;35.11;95834.53;5076709;28;20261;-77
2024/03/20 11:09:47;;;;;;;0.77;0.60;;;;;;;18.79;34.08;95839.34;5078647;28;20204;-78
2024/03/20 11:12:30;;;;;;;1.67;0.65;;;;;;;18.99;34.66;95836.84;5097118;28;20204;-78
2024/03/20 11:15:00;;;;;;;1.77;0.70;;;;;;;18.66;36.50;95840.06;5074782;28;20188;-77
2024/03/20 11:17:26;;;;;;;1.60;0.80;;;;;;;18.84;36.35;95836.97;5079186;28;20196;-78
2024/03/20 11:19:52;;;;;;;0.90;0.90;;;;;;;18.95;36.83;95839.06;5078456;28;20196;-78
2024/03/20 11:22:21;;;;;;;1.70;0.90;;;;;;;18.49;36.93;95840.50;5061002;28;20193;-78
2024/03/20 11:24:47;;;;;;;2.80;0.80;;;;;;;18.85;36.15;95849.09;5097176;28;20191;-78
2024/03/20 11:27:12;;;;;;;1.88;0.80;;;;;;;18.70;32.94;95840.47;5066149;28;20283;-78
2024/03/20 11:29:37;;;;;;;2.45;0.93;;;;;;;18.50;35.68;95836.84;5080722;28;20176;-78
2024/03/20 11:32:03;;;;;;;0.80;0.70;;;;;;;18.75;33.49;95838.09;5078297;28;20229;-78
2024/03/20 11:34:28;;;;;;;2.30;0.70;;;;;;;18.81;33.64;95836.50;5078715;28;20637;-78